sensor_id;sensor_type;location;lat;lon;timestamp;P1;durP1;ratioP1;P2;durP2;ratioP2
21827;SDS011;11076;47.942;11.804;2024-01-15T00:04:02;2.80;;;2.20;;
21827;SDS011;11076;47.942;11.804;2024-01-15T00:09:05;1.93;;;1.20;;
21827;SDS011;11076;47.942;11.804;2024-01-15T00:14:08;2.93;;;2.30;;
21827;SDS011;11076;47.942;11.804;2024-01-15T00:19:11;3.03;;;2.23;;
21827;SDS011;11076;47.942;11.804;2024-01-15T00:24:13;3.73;;;2.20;;
21827;SDS011;11076;47.942;11.804;2024-01-15T00:29:16;3.90;;;3.50;;
21827;SDS011;11076;47.942;11.804;2024-01-15T00:34:18;2.80;;;1.73;;
21827;SDS011;11076;47.942;11.804;2024-01-15T00:39:21;3.83;;;2.33;;
21827;SDS011;11076;47.942;11.804;2024-01-15T00:44:23;3.20;;;2.40;;
21827;SDS011;11076;47.942;11.804;2024-01-15T00:49:26;2.43;;;2.00;;
21827;SDS011;11076;47.942;11.804;2024-01-15T00:54:29;3.27;;;2.60;;
21827;SDS011;11076;47.942;11.804;2024-01-15T00:59:31;2.47;;;2.27;;
21827;SDS011;11076;47.942;11.804;2024-01-15T01:04:34;2.43;;;1.90;;
21827;SDS011;11076;47.942;11.804;2024-01-15T01:09:36;3.17;;;2.53;;
21827;SDS011;11076;47.942;11.804;2024-01-15T01:14:38;2.47;;;1.60;;
21827;SDS011;11076;47.942;11.804;2024-01-15T01:19:41;3.30;;;2.33;;
21827;SDS011;11076;47.942;11.804;2024-01-15T01:24:43;2.80;;;1.90;;
21827;SDS011;11076;47.942;11.804;2024-01-15T01:29:45;4.17;;;2.73;;
21827;SDS011;11076;47.942;11.804;2024-01-15T01:34:48;3.70;;;2.50;;
21827;SDS011;11076;47.942;11.804;2024-01-15T01:39:50;6.00;;;2.80;;
21827;SDS011;11076;47.942;11.804;2024-01-15T01:44:53;1.57;;;1.10;;
21827;SDS011;11076;47.942;11.804;2024-01-15T01:49:55;6.87;;;4.40;;
21827;SDS011;11076;47.942;11.804;2024-01-15T01:54:58;10.67;;;6.63;;
21827;SDS011;11076;47.942;11.804;2024-01-15T02:00:03;13.37;;;5.87;;
21827;SDS011;11076;47.942;11.804;2024-01-15T02:05:12;9.20;;;5.23;;
21827;SDS011;11076;47.942;11.804;2024-01-15T02:10:20;9.60;;;5.57;;
21827;SDS011;11076;47.942;11.804;2024-01-15T02:15:22;7.93;;;4.87;;
21827;SDS011;11076;47.942;11.804;2024-01-15T02:20:25;8.07;;;4.27;;
21827;SDS011;11076;47.942;11.804;2024-01-15T02:25:28;13.20;;;7.57;;
21827;SDS011;11076;47.942;11.804;2024-01-15T02:30:30;9.47;;;5.67;;
21827;SDS011;11076;47.942;11.804;2024-01-15T02:35:34;11.93;;;7.70;;
21827;SDS011;11076;47.942;11.804;2024-01-15T02:40:40;12.13;;;7.27;;
21827;SDS011;11076;47.942;11.804;2024-01-15T02:45:42;12.63;;;7.13;;
21827;SDS011;11076;47.942;11.804;2024-01-15T02:50:44;11.63;;;7.00;;
21827;SDS011;11076;47.942;11.804;2024-01-15T02:55:47;7.70;;;5.63;;
21827;SDS011;11076;47.942;11.804;2024-01-15T03:00:49;14.03;;;6.13;;
21827;SDS011;11076;47.942;11.804;2024-01-15T03:05:52;12.43;;;6.83;;
21827;SDS011;11076;47.942;11.804;2024-01-15T03:10:54;12.13;;;7.33;;
21827;SDS011;11076;47.942;11.804;2024-01-15T03:15:56;11.17;;;6.13;;
21827;SDS011;11076;47.942;11.804;2024-01-15T03:20:59;9.07;;;4.60;;
21827;SDS011;11076;47.942;11.804;2024-01-15T03:26:03;5.03;;;3.37;;
21827;SDS011;11076;47.942;11.804;2024-01-15T03:31:05;7.90;;;4.67;;
21827;SDS011;11076;47.942;11.804;2024-01-15T03:36:09;9.17;;;4.17;;
21827;SDS011;11076;47.942;11.804;2024-01-15T03:41:13;7.57;;;4.40;;
21827;SDS011;11076;47.942;11.804;2024-01-15T03:46:15;8.23;;;4.60;;
21827;SDS011;11076;47.942;11.804;2024-01-15T03:51:18;4.87;;;3.53;;
21827;SDS011;11076;47.942;11.804;2024-01-15T03:56:20;4.57;;;3.17;;
21827;SDS011;11076;47.942;11.804;2024-01-15T04:01:23;3.90;;;2.97;;
21827;SDS011;11076;47.942;11.804;2024-01-15T04:06:25;5.87;;;4.10;;
21827;SDS011;11076;47.942;11.804;2024-01-15T04:11:28;4.73;;;2.90;;
21827;SDS011;11076;47.942;11.804;2024-01-15T04:16:30;6.73;;;3.47;;
21827;SDS011;11076;47.942;11.804;2024-01-15T04:21:32;8.03;;;3.73;;
21827;SDS011;11076;47.942;11.804;2024-01-15T04:26:35;9.87;;;5.30;;
21827;SDS011;11076;47.942;11.804;2024-01-15T04:31:37;4.97;;;2.87;;
21827;SDS011;11076;47.942;11.804;2024-01-15T04:36:40;5.67;;;3.37;;
21827;SDS011;11076;47.942;11.804;2024-01-15T04:41:46;5.17;;;3.30;;
21827;SDS011;11076;47.942;11.804;2024-01-15T04:46:48;5.37;;;3.10;;
21827;SDS011;11076;47.942;11.804;2024-01-15T04:51:50;3.10;;;2.17;;
21827;SDS011;11076;47.942;11.804;2024-01-15T04:56:53;4.30;;;2.67;;
21827;SDS011;11076;47.942;11.804;2024-01-15T05:01:56;5.13;;;3.10;;
21827;SDS011;11076;47.942;11.804;2024-01-15T05:06:58;5.87;;;2.83;;
21827;SDS011;11076;47.942;11.804;2024-01-15T05:12:01;4.43;;;2.07;;
21827;SDS011;11076;47.942;11.804;2024-01-15T05:17:03;6.73;;;2.27;;
21827;SDS011;11076;47.942;11.804;2024-01-15T05:22:06;5.33;;;2.80;;
21827;SDS011;11076;47.942;11.804;2024-01-15T05:27:08;3.00;;;2.17;;
21827;SDS011;11076;47.942;11.804;2024-01-15T05:32:11;6.83;;;3.10;;
21827;SDS011;11076;47.942;11.804;2024-01-15T05:37:13;6.70;;;3.67;;
21827;SDS011;11076;47.942;11.804;2024-01-15T05:42:16;5.10;;;4.37;;
21827;SDS011;11076;47.942;11.804;2024-01-15T05:47:18;8.30;;;5.13;;
21827;SDS011;11076;47.942;11.804;2024-01-15T05:52:21;4.60;;;3.73;;
21827;SDS011;11076;47.942;11.804;2024-01-15T05:57:23;4.40;;;2.67;;
21827;SDS011;11076;47.942;11.804;2024-01-15T06:02:26;7.73;;;3.17;;
21827;SDS011;11076;47.942;11.804;2024-01-15T06:07:28;4.07;;;3.03;;
21827;SDS011;11076;47.942;11.804;2024-01-15T06:12:31;5.20;;;3.13;;
21827;SDS011;11076;47.942;11.804;2024-01-15T06:17:34;7.83;;;3.27;;
21827;SDS011;11076;47.942;11.804;2024-01-15T06:22:37;8.23;;;4.23;;
21827;SDS011;11076;47.942;11.804;2024-01-15T06:27:41;8.97;;;4.67;;
21827;SDS011;11076;47.942;11.804;2024-01-15T06:32:43;16.57;;;6.93;;
21827;SDS011;11076;47.942;11.804;2024-01-15T06:37:46;20.43;;;7.43;;
21827;SDS011;11076;47.942;11.804;2024-01-15T06:42:48;4.53;;;2.70;;
21827;SDS011;11076;47.942;11.804;2024-01-15T06:47:51;10.90;;;3.63;;
21827;SDS011;11076;47.942;11.804;2024-01-15T06:52:53;7.70;;;4.63;;
21827;SDS011;11076;47.942;11.804;2024-01-15T06:57:56;8.23;;;4.33;;
21827;SDS011;11076;47.942;11.804;2024-01-15T07:02:58;12.80;;;6.23;;
21827;SDS011;11076;47.942;11.804;2024-01-15T07:08:01;9.57;;;3.20;;
21827;SDS011;11076;47.942;11.804;2024-01-15T07:13:03;9.13;;;5.20;;
21827;SDS011;11076;47.942;11.804;2024-01-15T07:18:07;7.80;;;4.00;;
21827;SDS011;11076;47.942;11.804;2024-01-15T07:23:10;18.13;;;7.33;;
21827;SDS011;11076;47.942;11.804;2024-01-15T07:28:12;17.23;;;6.83;;
21827;SDS011;11076;47.942;11.804;2024-01-15T07:33:15;32.87;;;11.63;;
21827;SDS011;11076;47.942;11.804;2024-01-15T07:38:18;40.50;;;15.20;;
21827;SDS011;11076;47.942;11.804;2024-01-15T07:43:20;52.97;;;17.17;;
21827;SDS011;11076;47.942;11.804;2024-01-15T07:48:23;7.10;;;4.63;;
21827;SDS011;11076;47.942;11.804;2024-01-15T07:53:25;9.00;;;4.83;;
21827;SDS011;11076;47.942;11.804;2024-01-15T07:58:28;13.63;;;6.93;;
21827;SDS011;11076;47.942;11.804;2024-01-15T08:03:31;13.20;;;7.23;;
21827;SDS011;11076;47.942;11.804;2024-01-15T08:08:34;9.97;;;5.53;;
21827;SDS011;11076;47.942;11.804;2024-01-15T08:13:36;7.37;;;4.77;;
21827;SDS011;11076;47.942;11.804;2024-01-15T08:18:40;7.37;;;4.30;;
21827;SDS011;11076;47.942;11.804;2024-01-15T08:23:43;8.00;;;4.90;;
21827;SDS011;11076;47.942;11.804;2024-01-15T08:28:46;9.70;;;4.53;;
21827;SDS011;11076;47.942;11.804;2024-01-15T08:33:48;4.17;;;2.93;;
21827;SDS011;11076;47.942;11.804;2024-01-15T08:38:51;8.93;;;4.77;;
21827;SDS011;11076;47.942;11.804;2024-01-15T08:43:53;6.90;;;4.87;;
21827;SDS011;11076;47.942;11.804;2024-01-15T08:48:56;6.63;;;3.87;;
21827;SDS011;11076;47.942;11.804;2024-01-15T08:53:58;7.80;;;5.00;;
21827;SDS011;11076;47.942;11.804;2024-01-15T08:59:00;7.63;;;4.33;;
21827;SDS011;11076;47.942;11.804;2024-01-15T09:04:03;6.87;;;4.40;;
21827;SDS011;11076;47.942;11.804;2024-01-15T09:09:06;10.77;;;3.53;;
21827;SDS011;11076;47.942;11.804;2024-01-15T09:14:08;10.80;;;5.10;;
21827;SDS011;11076;47.942;11.804;2024-01-15T09:19:11;12.43;;;6.13;;
21827;SDS011;11076;47.942;11.804;2024-01-15T09:24:13;6.60;;;4.17;;
21827;SDS011;11076;47.942;11.804;2024-01-15T09:29:16;9.03;;;5.37;;
21827;SDS011;11076;47.942;11.804;2024-01-15T09:34:19;8.50;;;5.00;;
21827;SDS011;11076;47.942;11.804;2024-01-15T09:39:22;6.83;;;4.40;;
21827;SDS011;11076;47.942;11.804;2024-01-15T09:44:25;7.63;;;4.40;;
21827;SDS011;11076;47.942;11.804;2024-01-15T09:49:28;6.20;;;3.90;;
21827;SDS011;11076;47.942;11.804;2024-01-15T09:54:31;8.03;;;4.00;;
21827;SDS011;11076;47.942;11.804;2024-01-15T09:59:35;5.30;;;3.10;;
21827;SDS011;11076;47.942;11.804;2024-01-15T10:04:39;8.70;;;3.70;;
21827;SDS011;11076;47.942;11.804;2024-01-15T10:09:41;6.73;;;3.37;;
21827;SDS011;11076;47.942;11.804;2024-01-15T10:14:44;4.20;;;3.07;;
21827;SDS011;11076;47.942;11.804;2024-01-15T10:19:46;4.53;;;3.47;;
21827;SDS011;11076;47.942;11.804;2024-01-15T10:24:49;5.00;;;3.40;;
21827;SDS011;11076;47.942;11.804;2024-01-15T10:29:52;9.10;;;3.87;;
21827;SDS011;11076;47.942;11.804;2024-01-15T10:34:55;5.97;;;3.00;;
21827;SDS011;11076;47.942;11.804;2024-01-15T10:40:03;5.40;;;3.00;;
21827;SDS011;11076;47.942;11.804;2024-01-15T10:45:09;5.13;;;3.30;;
21827;SDS011;11076;47.942;11.804;2024-01-15T10:50:11;7.03;;;3.50;;
21827;SDS011;11076;47.942;11.804;2024-01-15T10:55:14;3.60;;;2.50;;
21827;SDS011;11076;47.942;11.804;2024-01-15T11:00:17;4.07;;;3.13;;
21827;SDS011;11076;47.942;11.804;2024-01-15T11:05:19;5.93;;;2.47;;
21827;SDS011;11076;47.942;11.804;2024-01-15T11:10:44;3.67;;;2.60;;
21827;SDS011;11076;47.942;11.804;2024-01-15T11:27:01;3.53;;;2.70;;
21827;SDS011;11076;47.942;11.804;2024-01-15T11:41:55;5.70;;;2.67;;
21827;SDS011;11076;47.942;11.804;2024-01-15T11:47:02;3.57;;;2.10;;
21827;SDS011;11076;47.942;11.804;2024-01-15T11:52:20;4.63;;;3.10;;
21827;SDS011;11076;47.942;11.804;2024-01-15T11:57:29;3.77;;;2.37;;
21827;SDS011;11076;47.942;11.804;2024-01-15T12:02:54;2.77;;;1.97;;
21827;SDS011;11076;47.942;11.804;2024-01-15T12:07:56;4.10;;;2.43;;
21827;SDS011;11076;47.942;11.804;2024-01-15T12:13:08;5.13;;;2.60;;
21827;SDS011;11076;47.942;11.804;2024-01-15T12:18:13;5.23;;;3.33;;
21827;SDS011;11076;47.942;11.804;2024-01-15T12:23:17;5.33;;;2.93;;
21827;SDS011;11076;47.942;11.804;2024-01-15T12:28:20;5.80;;;2.70;;
21827;SDS011;11076;47.942;11.804;2024-01-15T12:33:23;3.07;;;2.40;;
21827;SDS011;11076;47.942;11.804;2024-01-15T12:38:27;3.33;;;1.87;;
21827;SDS011;11076;47.942;11.804;2024-01-15T12:43:30;2.60;;;1.93;;
21827;SDS011;11076;47.942;11.804;2024-01-15T12:48:32;3.33;;;2.07;;
21827;SDS011;11076;47.942;11.804;2024-01-15T12:53:36;5.50;;;3.23;;
21827;SDS011;11076;47.942;11.804;2024-01-15T12:58:39;5.90;;;3.50;;
21827;SDS011;11076;47.942;11.804;2024-01-15T13:03:41;5.87;;;3.33;;
21827;SDS011;11076;47.942;11.804;2024-01-15T13:08:44;12.73;;;6.23;;
21827;SDS011;11076;47.942;11.804;2024-01-15T13:13:46;4.50;;;2.37;;
21827;SDS011;11076;47.942;11.804;2024-01-15T13:18:49;11.13;;;6.57;;
21827;SDS011;11076;47.942;11.804;2024-01-15T13:23:52;5.10;;;2.97;;
21827;SDS011;11076;47.942;11.804;2024-01-15T13:28:54;3.17;;;1.27;;
21827;SDS011;11076;47.942;11.804;2024-01-15T13:33:56;11.13;;;3.93;;
21827;SDS011;11076;47.942;11.804;2024-01-15T13:39:00;4.00;;;1.93;;
21827;SDS011;11076;47.942;11.804;2024-01-15T13:44:02;5.10;;;2.27;;
21827;SDS011;11076;47.942;11.804;2024-01-15T13:49:04;5.30;;;2.43;;
21827;SDS011;11076;47.942;11.804;2024-01-15T13:54:08;4.87;;;2.37;;
21827;SDS011;11076;47.942;11.804;2024-01-15T13:59:10;3.13;;;2.30;;
21827;SDS011;11076;47.942;11.804;2024-01-15T14:04:13;12.93;;;5.20;;
21827;SDS011;11076;47.942;11.804;2024-01-15T14:09:15;3.30;;;2.17;;
21827;SDS011;11076;47.942;11.804;2024-01-15T14:14:18;2.17;;;1.77;;
21827;SDS011;11076;47.942;11.804;2024-01-15T14:19:20;2.53;;;2.17;;
21827;SDS011;11076;47.942;11.804;2024-01-15T14:24:23;2.77;;;2.10;;
21827;SDS011;11076;47.942;11.804;2024-01-15T14:29:26;2.43;;;1.47;;
21827;SDS011;11076;47.942;11.804;2024-01-15T14:34:29;2.70;;;1.90;;
21827;SDS011;11076;47.942;11.804;2024-01-15T14:39:31;2.53;;;1.83;;
21827;SDS011;11076;47.942;11.804;2024-01-15T14:44:36;6.03;;;1.63;;
21827;SDS011;11076;47.942;11.804;2024-01-15T14:49:40;2.10;;;1.67;;
21827;SDS011;11076;47.942;11.804;2024-01-15T14:54:42;2.90;;;1.87;;
21827;SDS011;11076;47.942;11.804;2024-01-15T14:59:45;1.10;;;1.03;;
21827;SDS011;11076;47.942;11.804;2024-01-15T15:04:48;2.83;;;1.67;;
21827;SDS011;11076;47.942;11.804;2024-01-15T15:09:50;2.97;;;2.10;;
21827;SDS011;11076;47.942;11.804;2024-01-15T15:14:53;4.43;;;2.30;;
21827;SDS011;11076;47.942;11.804;2024-01-15T15:19:56;2.30;;;1.90;;
21827;SDS011;11076;47.942;11.804;2024-01-15T15:24:59;2.43;;;1.80;;
21827;SDS011;11076;47.942;11.804;2024-01-15T15:30:01;5.47;;;2.60;;
21827;SDS011;11076;47.942;11.804;2024-01-15T15:35:04;1.80;;;1.70;;
21827;SDS011;11076;47.942;11.804;2024-01-15T15:40:07;2.43;;;1.70;;
21827;SDS011;11076;47.942;11.804;2024-01-15T15:45:11;2.17;;;1.87;;
21827;SDS011;11076;47.942;11.804;2024-01-15T15:50:14;1.70;;;1.60;;
21827;SDS011;11076;47.942;11.804;2024-01-15T15:55:17;2.13;;;1.70;;
21827;SDS011;11076;47.942;11.804;2024-01-15T16:00:19;1.57;;;1.47;;
21827;SDS011;11076;47.942;11.804;2024-01-15T16:05:22;1.60;;;1.50;;
21827;SDS011;11076;47.942;11.804;2024-01-15T16:10:25;2.13;;;1.70;;
21827;SDS011;11076;47.942;11.804;2024-01-15T16:15:27;2.93;;;2.03;;
21827;SDS011;11076;47.942;11.804;2024-01-15T16:20:30;2.93;;;2.13;;
21827;SDS011;11076;47.942;11.804;2024-01-15T16:25:52;6.67;;;2.87;;
21827;SDS011;11076;47.942;11.804;2024-01-15T16:30:54;3.70;;;1.70;;
21827;SDS011;11076;47.942;11.804;2024-01-15T16:36:00;2.27;;;1.47;;
21827;SDS011;11076;47.942;11.804;2024-01-15T16:41:02;2.47;;;2.17;;
21827;SDS011;11076;47.942;11.804;2024-01-15T16:46:05;2.43;;;2.13;;
21827;SDS011;11076;47.942;11.804;2024-01-15T16:51:07;5.20;;;2.27;;
21827;SDS011;11076;47.942;11.804;2024-01-15T16:56:10;3.33;;;2.50;;
21827;SDS011;11076;47.942;11.804;2024-01-15T17:01:12;2.73;;;2.40;;
21827;SDS011;11076;47.942;11.804;2024-01-15T17:06:15;3.63;;;2.80;;
21827;SDS011;11076;47.942;11.804;2024-01-15T17:11:17;3.03;;;2.57;;
21827;SDS011;11076;47.942;11.804;2024-01-15T17:16:20;4.23;;;2.80;;
21827;SDS011;11076;47.942;11.804;2024-01-15T17:21:23;5.83;;;3.03;;
21827;SDS011;11076;47.942;11.804;2024-01-15T17:26:26;7.50;;;4.73;;
21827;SDS011;11076;47.942;11.804;2024-01-15T17:31:28;4.57;;;3.10;;
21827;SDS011;11076;47.942;11.804;2024-01-15T17:36:31;7.23;;;3.57;;
21827;SDS011;11076;47.942;11.804;2024-01-15T17:41:34;6.40;;;4.03;;
21827;SDS011;11076;47.942;11.804;2024-01-15T17:46:37;6.40;;;4.23;;
21827;SDS011;11076;47.942;11.804;2024-01-15T17:51:39;6.83;;;4.37;;
21827;SDS011;11076;47.942;11.804;2024-01-15T17:56:41;7.33;;;2.60;;
21827;SDS011;11076;47.942;11.804;2024-01-15T18:01:44;9.90;;;5.17;;
21827;SDS011;11076;47.942;11.804;2024-01-15T18:06:48;8.27;;;4.83;;
21827;SDS011;11076;47.942;11.804;2024-01-15T18:11:51;8.27;;;5.10;;
21827;SDS011;11076;47.942;11.804;2024-01-15T18:16:55;5.27;;;3.03;;
21827;SDS011;11076;47.942;11.804;2024-01-15T18:21:59;7.13;;;4.23;;
21827;SDS011;11076;47.942;11.804;2024-01-15T18:27:01;11.70;;;6.30;;
21827;SDS011;11076;47.942;11.804;2024-01-15T18:32:05;6.00;;;3.10;;
21827;SDS011;11076;47.942;11.804;2024-01-15T18:37:08;6.90;;;2.97;;
21827;SDS011;11076;47.942;11.804;2024-01-15T18:42:11;3.90;;;2.33;;
21827;SDS011;11076;47.942;11.804;2024-01-15T18:47:13;5.47;;;2.77;;
21827;SDS011;11076;47.942;11.804;2024-01-15T18:52:16;3.67;;;2.13;;
21827;SDS011;11076;47.942;11.804;2024-01-15T18:57:20;4.77;;;2.03;;
21827;SDS011;11076;47.942;11.804;2024-01-15T19:02:22;2.43;;;2.23;;
21827;SDS011;11076;47.942;11.804;2024-01-15T19:07:25;3.57;;;2.37;;
21827;SDS011;11076;47.942;11.804;2024-01-15T19:12:27;3.27;;;2.47;;
21827;SDS011;11076;47.942;11.804;2024-01-15T19:17:29;6.10;;;3.30;;
21827;SDS011;11076;47.942;11.804;2024-01-15T19:22:32;9.80;;;4.13;;
21827;SDS011;11076;47.942;11.804;2024-01-15T19:27:34;3.93;;;2.70;;
21827;SDS011;11076;47.942;11.804;2024-01-15T19:32:38;3.37;;;2.60;;
21827;SDS011;11076;47.942;11.804;2024-01-15T19:37:42;3.77;;;2.97;;
21827;SDS011;11076;47.942;11.804;2024-01-15T19:42:46;7.27;;;2.53;;
21827;SDS011;11076;47.942;11.804;2024-01-15T19:47:48;4.87;;;2.57;;
21827;SDS011;11076;47.942;11.804;2024-01-15T19:52:50;2.77;;;2.00;;
21827;SDS011;11076;47.942;11.804;2024-01-15T19:57:53;2.43;;;2.13;;
21827;SDS011;11076;47.942;11.804;2024-01-15T20:02:55;6.93;;;2.53;;
21827;SDS011;11076;47.942;11.804;2024-01-15T20:07:58;4.07;;;3.00;;
21827;SDS011;11076;47.942;11.804;2024-01-15T20:13:00;3.27;;;2.67;;
21827;SDS011;11076;47.942;11.804;2024-01-15T20:18:03;5.50;;;2.57;;
21827;SDS011;11076;47.942;11.804;2024-01-15T20:23:06;5.17;;;2.73;;
21827;SDS011;11076;47.942;11.804;2024-01-15T20:28:10;4.83;;;3.17;;
21827;SDS011;11076;47.942;11.804;2024-01-15T20:33:12;3.97;;;2.90;;
21827;SDS011;11076;47.942;11.804;2024-01-15T20:38:14;2.30;;;2.13;;
21827;SDS011;11076;47.942;11.804;2024-01-15T20:43:17;2.17;;;1.77;;
21827;SDS011;11076;47.942;11.804;2024-01-15T20:48:19;3.30;;;2.30;;
21827;SDS011;11076;47.942;11.804;2024-01-15T20:53:24;2.50;;;2.10;;
21827;SDS011;11076;47.942;11.804;2024-01-15T20:58:26;3.03;;;2.40;;
21827;SDS011;11076;47.942;11.804;2024-01-15T21:03:29;5.47;;;2.27;;
21827;SDS011;11076;47.942;11.804;2024-01-15T21:08:32;4.00;;;2.87;;
21827;SDS011;11076;47.942;11.804;2024-01-15T21:13:34;3.87;;;2.37;;
21827;SDS011;11076;47.942;11.804;2024-01-15T21:18:37;1.43;;;1.40;;
21827;SDS011;11076;47.942;11.804;2024-01-15T21:23:39;3.23;;;2.90;;
21827;SDS011;11076;47.942;11.804;2024-01-15T21:28:42;3.43;;;2.40;;
21827;SDS011;11076;47.942;11.804;2024-01-15T21:33:46;3.83;;;2.43;;
21827;SDS011;11076;47.942;11.804;2024-01-15T21:38:48;4.57;;;2.50;;
21827;SDS011;11076;47.942;11.804;2024-01-15T21:43:50;3.73;;;2.00;;
21827;SDS011;11076;47.942;11.804;2024-01-15T21:48:53;5.67;;;3.07;;
21827;SDS011;11076;47.942;11.804;2024-01-15T21:53:57;4.00;;;2.70;;
21827;SDS011;11076;47.942;11.804;2024-01-15T21:58:59;2.07;;;1.80;;
21827;SDS011;11076;47.942;11.804;2024-01-15T22:04:02;2.13;;;1.80;;
21827;SDS011;11076;47.942;11.804;2024-01-15T22:09:05;2.60;;;1.70;;
21827;SDS011;11076;47.942;11.804;2024-01-15T22:14:07;2.23;;;2.03;;
21827;SDS011;11076;47.942;11.804;2024-01-15T22:19:11;7.63;;;2.57;;
21827;SDS011;11076;47.942;11.804;2024-01-15T22:24:13;4.53;;;2.60;;
21827;SDS011;11076;47.942;11.804;2024-01-15T22:29:16;2.90;;;2.20;;
21827;SDS011;11076;47.942;11.804;2024-01-15T22:34:19;2.97;;;1.60;;
21827;SDS011;11076;47.942;11.804;2024-01-15T22:39:22;1.60;;;1.43;;
21827;SDS011;11076;47.942;11.804;2024-01-15T22:44:24;1.23;;;1.13;;
21827;SDS011;11076;47.942;11.804;2024-01-15T22:49:27;5.73;;;2.07;;
21827;SDS011;11076;47.942;11.804;2024-01-15T22:54:29;4.17;;;1.90;;
21827;SDS011;11076;47.942;11.804;2024-01-15T22:59:32;3.10;;;1.90;;
21827;SDS011;11076;47.942;11.804;2024-01-15T23:04:34;7.47;;;2.43;;
21827;SDS011;11076;47.942;11.804;2024-01-15T23:09:40;1.80;;;1.70;;
21827;SDS011;11076;47.942;11.804;2024-01-15T23:14:43;2.70;;;1.90;;
21827;SDS011;11076;47.942;11.804;2024-01-15T23:19:45;1.30;;;1.20;;
21827;SDS011;11076;47.942;11.804;2024-01-15T23:24:48;4.80;;;1.83;;
21827;SDS011;11076;47.942;11.804;2024-01-15T23:29:50;3.07;;;1.50;;
21827;SDS011;11076;47.942;11.804;2024-01-15T23:34:53;1.87;;;1.77;;
21827;SDS011;11076;47.942;11.804;2024-01-15T23:39:55;1.70;;;1.60;;
21827;SDS011;11076;47.942;11.804;2024-01-15T23:44:58;1.83;;;1.43;;
21827;SDS011;11076;47.942;11.804;2024-01-15T23:50:00;0.90;;;0.90;;
21827;SDS011;11076;47.942;11.804;2024-01-15T23:55:05;1.00;;;0.90;;
